Flight Track Log - Related Links

Times and Time Zones

All times are in EDT time to prevent confusion due to time zone crossing. See the EJA396 flight status page for this flight to view local times or setup timezone preferences in your user account.


Time Position Orientation Groundspeed Altitude Reporting Facility
EDT Latitude Longitude Course Direction KTS MPH feet Rate Location/Type
Sun 02:35:32 PM 41.8000 -87.7167 137° Southeast 164 189 2,700  Level Chicago TRACON
Sun 02:36:24 PM 41.7697 -87.6792 137° Southeast 199 229 3,000 1,947 Climbing Chicago Center
Sun 02:37:26 PM 41.6911 -87.6828 182° South 240 276 6,400 3,823 Climbing Chicago Center
Sun 02:38:28 PM 41.6236 -87.6933 187° South 245 282 10,900 3,774 Climbing Chicago Center
Sun 02:39:30 PM 41.5389 -87.7064 187° South 309 356 14,200 3,312 Climbing Chicago Center
Sun 02:40:33 PM 41.4506 -87.7203 187° South 316 364 17,800 3,120 Climbing Chicago Center
Sun 02:41:35 PM 41.3569 -87.7008 171° South 338 389 20,700 2,661 Climbing Chicago Center
Sun 02:42:37 PM 41.2608 -87.6772 170° South 348 400 23,300 2,032 Climbing Chicago Center
Sun 02:43:39 PM 41.1375 -87.6356 166° South 384 442 24,900 823 Climbing Chicago Center
Sun 02:44:41 PM 41.0294 -87.5733 157° South 420 483 25,000 48 Climbing Chicago Center
Sun 02:45:43 PM 40.9153 -87.5081 157° South 446 513 25,000  Level Chicago Center
Sun 02:46:45 PM 40.8044 -87.4442 156° South 439 505 25,000  Level Chicago Center
Sun 02:47:47 PM 40.6989 -87.3875 158° South 415 478 25,000  Level Chicago Center
Sun 02:48:49 PM 40.5822 -87.3214 157° South 384 442 25,000  Level Chicago Center
Sun 02:49:51 PM 40.4881 -87.2692 157° South 371 427 25,000  Level Chicago Center
Sun 02:50:53 PM 40.3894 -87.2142 157° South 362 417 25,000  Level Chicago Center
Sun 02:51:55 PM 40.2989 -87.1633 157° South 356 410 25,000  Level Chicago Center
Sun 02:52:58 PM 40.1981 -87.1069 157° South 399 459 25,000  Level Chicago Center
Sun 02:53:49 PM 40.1086 -87.0567 157° South 423 487 25,000 -137 Level Indianapolis Center
Sun 02:55:53 PM 39.8686 -86.9250 157° South 423 487 24,600 -551 Descending Indianapolis Center
Sun 02:56:54 PM 39.7597 -86.8653 157° South 428 493 23,300 -1,317 Descending Indianapolis Center
Sun 02:57:56 PM 39.6528 -86.8064 157° South 423 487 21,900 -1,403 Descending Indianapolis Center
Sun 02:58:58 PM 39.5489 -86.7497 157° South 413 475 20,400 -1,597 Descending Indianapolis Center
Sun 03:00:00 PM 39.4450 -86.6936 157° South 410 472 18,600 -2,000 Descending Indianapolis Center
Sun 03:01:01 PM 39.3242 -86.6269 157° South 400 460 16,300 -2,098 Descending Indianapolis Center
Sun 03:02:03 PM 39.2267 -86.5753 158° South 386 444 14,300 -1,113 Descending Indianapolis Center
Sun 03:03:05 PM 39.1333 -86.5256 158° South 371 427 14,000 -144 Descending Indianapolis Center
Sun 03:04:08 PM 39.0369 -86.4736 157° South 376 433 14,000  Level Indianapolis Center
Sun 03:05:10 PM 38.9400 -86.4219 157° South 377 434 14,000 -145 Level Indianapolis Center
Sun 03:06:12 PM 38.8417 -86.3700 158° South 378 435 13,700 -823 Descending Indianapolis Center
Sun 03:07:14 PM 38.7283 -86.3108 158° South 366 421 12,300 -1,171 Descending Indianapolis Center
Sun 03:08:15 PM 38.6458 -86.2303 143° Southeast 370 426 11,300 -1,171 Descending Indianapolis Center
Sun 03:09:17 PM 38.5703 -86.1475 139° Southeast 359 413 9,900 -1,645 Descending Indianapolis Center
Sun 03:10:19 PM 38.5211 -86.0608 126° Southeast 308 354 7,900 -2,177 Descending Indianapolis Center
Sun 03:11:21 PM 38.4761 -85.9772 124° Southeast 290 334 5,400 -2,226 Descending Indianapolis Center
Sun 03:12:23 PM 38.4308 -85.9003 127° Southeast 278 320 3,300 -1,171 Descending Indianapolis Center
Sun 03:13:24 PM 38.3764 -85.8367 138° Southeast 269 310 3,000 -195 Descending Indianapolis Center
Sun 03:14:26 PM 38.3231 -85.7789 140° Southeast 260 299 2,900 -242 Descending Indianapolis Center
Sun 03:15:28 PM 38.2431 -85.7542 166° South 256 295 2,500 -387 Descending Indianapolis Center
Sun 03:18:00 PM 38.1741 -85.7365 142° Southeast  Level Estimated
Sun 03:25:00 PM 38.1741 -85.7365 142° Southeast  Level Estimated

Login

Don't have an account? Register now (free) for customized features, flight alerts, and more!